createdAt,value
2022-07-30T00:00:54.071Z,4.40
2022-07-30T00:03:22.275Z,4.40
2022-07-30T00:05:53.703Z,7.30
2022-07-30T00:08:27.510Z,6.70
2022-07-30T00:10:55.550Z,7.90
2022-07-30T00:13:24.884Z,5.00
2022-07-30T00:15:53.313Z,5.30
2022-07-30T00:18:21.806Z,4.10
2022-07-30T00:20:50.311Z,6.50
2022-07-30T00:23:18.231Z,5.30
2022-07-30T00:25:46.230Z,5.20
2022-07-30T00:28:14.110Z,4.30
2022-07-30T00:30:42.014Z,6.50
2022-07-30T00:33:09.849Z,5.80
2022-07-30T00:35:39.865Z,4.00
2022-07-30T00:38:07.509Z,6.90
2022-07-30T00:40:35.272Z,4.90
2022-07-30T00:43:03.183Z,5.20
2022-07-30T00:45:31.413Z,5.90
2022-07-30T00:48:01.669Z,6.40
2022-07-30T00:50:29.505Z,3.80
2022-07-30T00:52:57.884Z,7.70
2022-07-30T00:55:25.750Z,5.20
2022-07-30T00:57:53.306Z,4.70
2022-07-30T01:00:22.025Z,6.50
2022-07-30T01:02:50.198Z,3.10
2022-07-30T01:05:18.254Z,5.40
2022-07-30T01:07:46.009Z,4.40
2022-07-30T01:10:15.633Z,5.40
2022-07-30T01:12:43.956Z,6.50
2022-07-30T01:15:11.798Z,4.00
2022-07-30T01:17:39.869Z,4.60
2022-07-30T01:20:16.089Z,3.90
2022-07-30T01:23:03.098Z,5.90
2022-07-30T01:25:31.360Z,4.20
2022-07-30T01:28:02.657Z,4.70
2022-07-30T01:30:32.546Z,7.40
2022-07-30T01:33:03.293Z,3.30
2022-07-30T01:35:32.316Z,3.20
2022-07-30T01:38:01.105Z,5.80
2022-07-30T01:40:29.529Z,4.40
2022-07-30T01:42:58.924Z,4.20
2022-07-30T01:45:28.392Z,8.40
2022-07-30T01:47:57.385Z,3.70
2022-07-30T01:50:25.605Z,5.50
2022-07-30T01:52:55.020Z,4.40
2022-07-30T01:55:27.623Z,4.00
2022-07-30T01:57:56.040Z,4.30
2022-07-30T02:00:24.809Z,5.30
2022-07-30T02:02:54.403Z,5.40
2022-07-30T02:05:22.096Z,5.40
2022-07-30T02:07:54.208Z,2.90
2022-07-30T02:10:35.676Z,4.40
2022-07-30T02:13:04.787Z,5.40
2022-07-30T02:15:41.979Z,3.80
2022-07-30T02:18:26.120Z,5.00
2022-07-30T02:21:01.256Z,4.60
2022-07-30T02:23:31.248Z,5.10
2022-07-30T02:26:00.501Z,6.60
2022-07-30T02:28:29.022Z,3.90
2022-07-30T02:30:59.444Z,5.80
2022-07-30T02:33:33.422Z,4.50
2022-07-30T02:36:03.405Z,5.30
2022-07-30T02:38:39.443Z,4.00
2022-07-30T02:41:10.541Z,5.70
2022-07-30T02:43:40.814Z,2.80
2022-07-30T02:46:10.145Z,3.40
2022-07-30T02:48:38.960Z,5.20
2022-07-30T02:51:07.720Z,5.80
2022-07-30T02:53:37.633Z,7.30
2022-07-30T02:56:07.177Z,6.20
2022-07-30T02:58:35.923Z,4.00
2022-07-30T03:01:04.125Z,3.70
2022-07-30T03:03:32.956Z,7.20
2022-07-30T03:06:02.559Z,4.40
2022-07-30T03:08:31.588Z,3.20
2022-07-30T03:11:00.256Z,3.70
2022-07-30T03:13:28.000Z,2.90
2022-07-30T03:15:57.035Z,4.90
2022-07-30T03:18:28.244Z,4.30
2022-07-30T03:20:56.817Z,4.50
2022-07-30T03:23:25.484Z,3.40
2022-07-30T03:26:02.474Z,5.10
2022-07-30T03:28:33.341Z,4.60
2022-07-30T03:31:01.793Z,3.90
2022-07-30T03:33:38.587Z,3.70
2022-07-30T03:36:07.661Z,3.80
2022-07-30T03:38:42.650Z,4.10
2022-07-30T03:41:11.156Z,2.30
2022-07-30T03:43:40.333Z,3.00
2022-07-30T03:46:09.602Z,4.20
2022-07-30T03:48:38.625Z,3.40
2022-07-30T03:51:07.585Z,4.50
2022-07-30T03:53:35.963Z,6.50
2022-07-30T03:56:04.089Z,3.20
2022-07-30T03:58:35.824Z,3.50
2022-07-30T04:01:04.297Z,4.50
2022-07-30T04:03:32.691Z,6.40
2022-07-30T04:06:01.024Z,2.80
2022-07-30T04:08:29.175Z,2.80
2022-07-30T04:10:56.848Z,3.10
2022-07-30T04:13:25.544Z,3.90
2022-07-30T04:16:34.342Z,3.70
2022-07-30T04:18:50.060Z,3.70
2022-07-30T04:21:19.206Z,4.20
2022-07-30T04:24:02.379Z,7.20
2022-07-30T04:26:35.291Z,2.90
2022-07-30T04:29:05.496Z,4.50
2022-07-30T04:31:40.606Z,4.90
2022-07-30T04:34:13.129Z,4.20
2022-07-30T04:36:42.685Z,3.30
2022-07-30T04:39:11.302Z,3.60
2022-07-30T04:41:48.583Z,4.70
2022-07-30T04:44:18.834Z,3.80
2022-07-30T04:46:47.774Z,6.00
2022-07-30T04:49:17.352Z,4.40
2022-07-30T04:51:45.799Z,6.30
2022-07-30T04:54:15.448Z,6.00
2022-07-30T04:56:53.242Z,4.10
2022-07-30T04:59:23.518Z,4.00
2022-07-30T05:01:52.777Z,5.10
2022-07-30T05:04:21.634Z,3.90
2022-07-30T05:06:49.756Z,4.10
2022-07-30T05:09:17.609Z,3.60
2022-07-30T05:11:52.410Z,3.40
2022-07-30T05:14:21.047Z,12.60
2022-07-30T05:16:49.204Z,5.90
2022-07-30T05:19:18.008Z,5.20
2022-07-30T05:21:47.066Z,5.20
2022-07-30T05:24:15.143Z,5.80
2022-07-30T05:26:43.424Z,4.50
2022-07-30T05:29:19.358Z,3.30
2022-07-30T05:31:48.304Z,4.70
2022-07-30T05:34:16.370Z,4.70
2022-07-30T05:36:45.280Z,5.00
2022-07-30T05:39:13.069Z,4.80
2022-07-30T05:41:40.777Z,3.60
2022-07-30T05:44:09.157Z,4.30
2022-07-30T05:46:37.065Z,4.20
2022-07-30T05:49:06.566Z,4.00
2022-07-30T05:51:34.495Z,4.00
2022-07-30T05:54:02.093Z,4.20
2022-07-30T05:56:29.804Z,3.10
2022-07-30T05:58:57.871Z,4.00
2022-07-30T06:01:25.832Z,2.60
2022-07-30T06:03:53.609Z,2.80
2022-07-30T06:06:23.239Z,2.80
2022-07-30T06:08:51.407Z,5.40
2022-07-30T06:11:19.162Z,3.50
2022-07-30T06:13:46.940Z,6.70
2022-07-30T06:16:14.829Z,3.90
2022-07-30T06:18:42.776Z,4.40
2022-07-30T06:21:10.556Z,4.50
2022-07-30T06:23:38.501Z,4.50
2022-07-30T06:26:06.468Z,6.10
2022-07-30T06:28:38.050Z,3.00
2022-07-30T06:31:07.319Z,3.20
2022-07-30T06:33:35.336Z,2.70
2022-07-30T06:36:03.539Z,4.40
2022-07-30T06:38:32.048Z,3.90
2022-07-30T06:41:02.764Z,5.00
2022-07-30T06:43:32.706Z,4.00
2022-07-30T06:46:01.040Z,4.10
2022-07-30T06:48:30.486Z,4.30
2022-07-30T06:50:58.282Z,5.50
2022-07-30T06:53:25.926Z,4.70
2022-07-30T06:55:57.578Z,4.30
2022-07-30T06:58:29.356Z,3.90
2022-07-30T07:00:58.353Z,4.40
2022-07-30T07:03:40.242Z,3.70
2022-07-30T07:06:09.202Z,3.60
2022-07-30T07:08:38.366Z,4.00
2022-07-30T07:11:06.978Z,5.10
2022-07-30T07:13:34.875Z,4.10
2022-07-30T07:16:02.829Z,3.70
2022-07-30T07:18:31.463Z,4.60
2022-07-30T07:20:59.472Z,4.80
2022-07-30T07:23:41.593Z,5.10
2022-07-30T07:26:11.910Z,7.10
2022-07-30T07:28:40.577Z,4.60
2022-07-30T07:31:09.101Z,9.40
2022-07-30T07:33:38.456Z,6.50
2022-07-30T07:36:07.299Z,5.80
2022-07-30T07:38:36.879Z,7.00
2022-07-30T07:41:05.779Z,5.80
2022-07-30T07:43:33.820Z,6.80
2022-07-30T07:46:03.087Z,4.50
2022-07-30T07:48:31.393Z,7.60
2022-07-30T07:51:00.534Z,7.40
2022-07-30T07:53:29.486Z,5.10
2022-07-30T07:55:58.451Z,5.30
2022-07-30T07:58:27.211Z,7.30
2022-07-30T08:00:55.595Z,5.50
2022-07-30T08:03:23.633Z,5.50
2022-07-30T08:05:58.142Z,5.30
2022-07-30T08:08:33.498Z,4.90
2022-07-30T08:11:01.804Z,6.60
2022-07-30T08:13:49.228Z,4.40
2022-07-30T08:16:17.803Z,5.00
2022-07-30T08:18:45.881Z,5.10
2022-07-30T08:21:15.479Z,6.10
2022-07-30T08:23:43.625Z,4.60
2022-07-30T08:26:12.028Z,6.00
2022-07-30T08:28:39.869Z,5.90
2022-07-30T08:31:07.703Z,5.30
2022-07-30T08:33:36.786Z,6.50
2022-07-30T08:36:09.778Z,7.20
2022-07-30T08:38:38.919Z,5.30
2022-07-30T08:41:07.688Z,8.00
2022-07-30T08:43:37.681Z,6.50
2022-07-30T08:46:09.169Z,8.60
2022-07-30T08:48:37.444Z,7.70
2022-07-30T08:51:05.433Z,7.20
2022-07-30T08:53:33.979Z,6.60
2022-07-30T08:56:02.389Z,6.90
2022-07-30T08:58:33.839Z,7.70
2022-07-30T09:01:02.042Z,7.60
2022-07-30T09:03:30.396Z,6.90
2022-07-30T09:05:59.083Z,7.50
2022-07-30T09:08:29.077Z,6.70
2022-07-30T09:10:56.947Z,7.80
2022-07-30T09:13:25.117Z,7.60
2022-07-30T09:15:53.298Z,8.20
2022-07-30T09:18:30.683Z,7.60
2022-07-30T09:21:01.155Z,6.60
2022-07-30T09:23:30.057Z,6.30
2022-07-30T09:26:00.029Z,6.90
2022-07-30T09:28:32.007Z,8.20
2022-07-30T09:30:59.821Z,7.30
2022-07-30T09:33:38.213Z,6.00
2022-07-30T09:36:10.824Z,7.90
2022-07-30T09:38:48.773Z,6.70
2022-07-30T09:41:39.597Z,8.10
2022-07-30T09:44:10.611Z,6.40
2022-07-30T09:46:45.061Z,6.70
2022-07-30T09:49:15.581Z,5.80
2022-07-30T09:51:55.623Z,6.60
2022-07-30T09:54:26.726Z,6.40
2022-07-30T09:57:06.019Z,7.00
2022-07-30T09:59:52.073Z,7.20
2022-07-30T10:02:20.227Z,7.70
2022-07-30T10:04:48.371Z,7.40
2022-07-30T10:07:25.547Z,9.30
2022-07-30T10:09:54.684Z,8.00
2022-07-30T10:12:24.012Z,6.70
2022-07-30T10:14:53.490Z,8.10
2022-07-30T10:17:22.270Z,6.90
2022-07-30T10:19:50.292Z,7.60
2022-07-30T10:22:18.249Z,6.60
2022-07-30T10:24:48.024Z,6.50
2022-07-30T10:27:17.527Z,7.60
2022-07-30T10:29:47.263Z,8.10
2022-07-30T10:32:14.934Z,7.30
2022-07-30T10:34:43.814Z,7.00
2022-07-30T10:37:12.614Z,8.60
2022-07-30T10:39:44.837Z,9.40
2022-07-30T10:42:26.025Z,8.50
2022-07-30T10:45:08.738Z,9.30
2022-07-30T10:47:51.437Z,7.50
2022-07-30T10:50:27.801Z,6.80
2022-07-30T10:53:03.751Z,7.70
2022-07-30T10:55:38.700Z,7.60
2022-07-30T10:58:09.319Z,8.10
2022-07-30T11:00:53.820Z,6.80
2022-07-30T11:03:23.826Z,8.70
2022-07-30T11:06:16.458Z,7.30
2022-07-30T11:08:57.238Z,7.70
2022-07-30T11:12:02.037Z,7.50
2022-07-30T11:14:17.124Z,7.00
2022-07-30T11:16:51.659Z,8.60
2022-07-30T11:19:55.190Z,7.70
2022-07-30T11:22:27.848Z,8.30
2022-07-30T11:24:56.742Z,7.30
2022-07-30T11:27:36.022Z,5.90
2022-07-30T11:30:08.416Z,8.60
2022-07-30T11:32:37.950Z,9.50
2022-07-30T11:35:17.684Z,7.30
2022-07-30T11:37:56.195Z,6.90
2022-07-30T11:40:26.692Z,7.40
2022-07-30T11:43:13.902Z,7.00
2022-07-30T11:45:50.997Z,7.30
2022-07-30T11:48:22.190Z,8.10
2022-07-30T11:50:50.749Z,7.30
2022-07-30T11:53:20.900Z,9.50
2022-07-30T11:55:52.630Z,8.10
2022-07-30T11:58:27.455Z,9.50
2022-07-30T12:00:57.780Z,7.40
2022-07-30T12:03:30.044Z,10.00
2022-07-30T12:06:10.585Z,13.10
2022-07-30T12:08:45.381Z,8.50
2022-07-30T12:11:14.467Z,9.30
2022-07-30T12:13:46.096Z,10.00
2022-07-30T12:16:17.188Z,7.70
2022-07-30T12:18:46.681Z,8.30
2022-07-30T12:21:19.995Z,8.70
2022-07-30T12:23:56.680Z,8.50
2022-07-30T12:26:30.255Z,8.50
2022-07-30T12:29:00.429Z,10.60
2022-07-30T12:31:28.702Z,9.20
2022-07-30T12:33:58.326Z,9.10
2022-07-30T12:36:29.711Z,8.90
2022-07-30T12:39:01.198Z,7.80
2022-07-30T12:41:45.396Z,8.80
2022-07-30T12:44:33.317Z,7.70
2022-07-30T12:47:01.879Z,8.10
2022-07-30T12:49:36.747Z,7.80
2022-07-30T12:52:28.250Z,10.10
2022-07-30T12:55:11.234Z,9.30
2022-07-30T12:57:52.829Z,7.60
2022-07-30T13:00:21.638Z,10.00
2022-07-30T13:02:49.881Z,8.30
2022-07-30T13:05:18.575Z,7.30
2022-07-30T13:07:53.514Z,8.40
2022-07-30T13:10:21.695Z,8.60
2022-07-30T13:12:49.910Z,8.90
2022-07-30T13:15:21.524Z,11.20
2022-07-30T13:17:50.185Z,10.40
2022-07-30T13:20:18.298Z,9.50
2022-07-30T13:22:46.480Z,9.90
2022-07-30T13:25:14.232Z,10.30
2022-07-30T13:27:41.926Z,10.30
2022-07-30T13:30:10.777Z,10.40
2022-07-30T13:32:39.627Z,10.30
2022-07-30T13:35:08.579Z,9.90
2022-07-30T13:37:38.223Z,9.80
2022-07-30T13:40:07.253Z,10.80
2022-07-30T13:42:35.119Z,11.40
2022-07-30T13:45:03.192Z,10.70
2022-07-30T13:47:31.377Z,10.70
2022-07-30T13:49:59.082Z,11.30
2022-07-30T13:52:27.004Z,10.90
2022-07-30T13:54:54.904Z,13.30
2022-07-30T13:57:24.302Z,10.60
2022-07-30T13:59:52.774Z,10.70
2022-07-30T14:02:20.723Z,12.40
2022-07-30T14:04:48.741Z,10.30
2022-07-30T14:07:17.931Z,12.20
2022-07-30T14:09:47.703Z,10.60
2022-07-30T14:12:17.506Z,12.00
2022-07-30T14:14:45.472Z,11.60
2022-07-30T14:17:14.161Z,11.80
2022-07-30T14:19:42.659Z,11.20
2022-07-30T14:22:11.753Z,12.00
2022-07-30T14:24:41.650Z,10.40
2022-07-30T14:27:10.132Z,11.50
2022-07-30T14:29:38.415Z,10.90
2022-07-30T14:32:09.131Z,12.70
2022-07-30T14:34:40.113Z,11.50
2022-07-30T14:37:09.714Z,11.20
2022-07-30T14:39:42.857Z,11.50
2022-07-30T14:42:13.756Z,11.50
2022-07-30T14:44:42.195Z,11.80
2022-07-30T14:47:10.082Z,12.10
2022-07-30T14:49:40.832Z,10.60
2022-07-30T14:52:09.621Z,11.80
2022-07-30T14:54:38.530Z,10.50
2022-07-30T14:57:08.900Z,12.30
2022-07-30T14:59:37.885Z,11.30
2022-07-30T15:02:10.960Z,11.60
2022-07-30T15:04:40.961Z,10.90
2022-07-30T15:07:09.094Z,10.00
2022-07-30T15:09:39.147Z,10.00
2022-07-30T15:12:11.560Z,9.00
2022-07-30T15:14:41.035Z,9.60
2022-07-30T15:17:10.276Z,8.70
2022-07-30T15:19:49.443Z,9.50
2022-07-30T15:22:21.781Z,8.30
2022-07-30T15:24:50.248Z,9.90
2022-07-30T15:27:18.369Z,7.90
2022-07-30T15:29:47.716Z,7.00
2022-07-30T15:32:18.119Z,8.50
2022-07-30T15:34:47.459Z,8.70
2022-07-30T15:37:15.948Z,7.50
2022-07-30T15:39:45.884Z,7.40
2022-07-30T15:42:15.357Z,9.00
2022-07-30T15:44:49.106Z,7.60
2022-07-30T15:47:20.398Z,9.40
2022-07-30T15:49:48.876Z,7.30
2022-07-30T15:52:19.036Z,8.40
2022-07-30T15:54:47.166Z,7.60
2022-07-30T15:57:17.175Z,7.00
2022-07-30T15:59:46.847Z,7.60
2022-07-30T16:02:16.944Z,10.80
2022-07-30T16:04:48.320Z,7.40
2022-07-30T16:07:17.662Z,7.70
2022-07-30T16:09:46.915Z,8.70
2022-07-30T16:12:15.805Z,7.80
2022-07-30T16:14:44.336Z,5.70
2022-07-30T16:17:14.275Z,6.90
2022-07-30T16:19:44.923Z,6.30
2022-07-30T16:22:15.783Z,6.10
2022-07-30T16:24:55.010Z,5.90
2022-07-30T16:27:28.238Z,6.40
2022-07-30T16:30:00.742Z,7.70
2022-07-30T16:32:33.197Z,8.80
2022-07-30T16:35:04.676Z,6.90
2022-07-30T16:37:35.347Z,6.00
2022-07-30T16:40:05.403Z,7.20
2022-07-30T16:42:38.312Z,8.70
2022-07-30T16:45:07.266Z,8.90
2022-07-30T16:47:37.222Z,8.20
2022-07-30T16:50:08.333Z,8.60
2022-07-30T16:52:38.013Z,7.70
2022-07-30T16:55:07.027Z,6.40
2022-07-30T16:57:35.205Z,7.80
2022-07-30T17:00:09.037Z,7.80
2022-07-30T17:02:39.683Z,7.40
2022-07-30T17:05:13.456Z,6.90
2022-07-30T17:07:48.234Z,9.40
2022-07-30T17:10:25.579Z,8.70
2022-07-30T17:12:57.359Z,7.40
2022-07-30T17:15:32.915Z,7.60
2022-07-30T17:18:06.474Z,7.00
2022-07-30T17:20:34.433Z,6.60
2022-07-30T17:23:02.941Z,7.40
2022-07-30T17:25:32.786Z,9.40
2022-07-30T17:28:01.676Z,8.70
2022-07-30T17:30:32.192Z,11.40
2022-07-30T17:33:05.342Z,7.40
2022-07-30T17:35:41.357Z,8.70
2022-07-30T17:38:13.713Z,7.40
2022-07-30T17:40:46.535Z,8.60
2022-07-30T17:43:17.334Z,9.40
2022-07-30T17:45:47.531Z,7.40
2022-07-30T17:48:17.326Z,8.50
2022-07-30T17:50:45.937Z,9.80
2022-07-30T17:53:14.278Z,10.20
2022-07-30T17:55:57.718Z,9.20
2022-07-30T17:58:27.220Z,8.20
2022-07-30T18:00:58.773Z,8.60
2022-07-30T18:03:27.574Z,8.90
2022-07-30T18:05:59.105Z,7.40
2022-07-30T18:08:36.281Z,14.90
2022-07-30T18:11:10.605Z,15.10
2022-07-30T18:13:45.066Z,9.80
2022-07-30T18:16:15.731Z,7.70
2022-07-30T18:18:49.736Z,7.80
2022-07-30T18:21:19.492Z,8.10
2022-07-30T18:23:49.376Z,9.20
2022-07-30T18:26:20.264Z,9.40
2022-07-30T18:28:51.541Z,9.90
2022-07-30T18:31:20.456Z,8.40
2022-07-30T18:33:49.986Z,9.70
2022-07-30T18:36:19.615Z,12.40
2022-07-30T18:38:51.242Z,12.30
2022-07-30T18:41:22.062Z,7.80
2022-07-30T18:43:54.271Z,9.00
2022-07-30T18:46:25.517Z,12.40
2022-07-30T18:48:57.999Z,10.00
2022-07-30T18:51:31.374Z,9.70
2022-07-30T18:54:04.027Z,9.20
2022-07-30T18:56:34.430Z,9.70
2022-07-30T18:59:05.119Z,10.70
2022-07-30T19:01:36.559Z,12.30
2022-07-30T19:04:10.821Z,11.80
2022-07-30T19:06:42.619Z,9.20
2022-07-30T19:09:17.724Z,9.20
2022-07-30T19:11:50.108Z,10.40
2022-07-30T19:14:27.030Z,10.00
2022-07-30T19:17:14.205Z,8.20
2022-07-30T19:20:03.494Z,14.20
2022-07-30T19:22:35.622Z,8.10
2022-07-30T19:25:07.998Z,7.50
2022-07-30T19:27:40.203Z,8.60
2022-07-30T19:30:15.318Z,8.70
2022-07-30T19:32:50.911Z,9.70
2022-07-30T19:35:21.460Z,8.10
2022-07-30T19:37:53.199Z,9.40
2022-07-30T19:40:23.998Z,7.10
2022-07-30T19:43:06.361Z,9.90
2022-07-30T19:45:47.793Z,6.30
2022-07-30T19:48:28.868Z,5.20
2022-07-30T19:51:11.048Z,5.30
2022-07-30T19:53:54.919Z,6.90
2022-07-30T19:56:27.790Z,8.00
2022-07-30T19:59:16.337Z,6.80
2022-07-30T20:01:47.814Z,6.10
2022-07-30T20:04:29.541Z,7.30
2022-07-30T20:07:04.454Z,7.10
2022-07-30T20:09:38.383Z,6.60
2022-07-30T20:12:12.872Z,6.50
2022-07-30T20:14:46.663Z,6.80
2022-07-30T20:17:19.707Z,7.50
2022-07-30T20:19:51.293Z,6.00
2022-07-30T20:22:28.626Z,5.90
2022-07-30T20:25:00.804Z,6.80
2022-07-30T20:27:36.275Z,6.10
2022-07-30T20:30:10.578Z,7.00
2022-07-30T20:32:44.814Z,6.10
2022-07-30T20:37:55.434Z,5.30
2022-07-30T20:40:27.649Z,5.90
2022-07-30T20:42:59.990Z,7.40
2022-07-30T20:45:40.672Z,6.50
2022-07-30T20:48:17.427Z,4.90
2022-07-30T20:50:55.833Z,5.90
2022-07-30T20:53:36.872Z,6.20
2022-07-30T20:56:09.797Z,5.90
2022-07-30T20:58:39.504Z,8.70
2022-07-30T21:01:17.186Z,6.10
2022-07-30T21:03:48.973Z,6.80
2022-07-30T21:06:19.380Z,5.80
2022-07-30T21:08:51.900Z,7.50
2022-07-30T21:11:23.230Z,6.80
2022-07-30T21:13:53.835Z,5.90
2022-07-30T21:16:28.827Z,5.70
2022-07-30T21:19:00.682Z,6.70
2022-07-30T21:21:41.673Z,7.00
2022-07-30T21:24:21.227Z,6.30
2022-07-30T21:26:52.763Z,7.30
2022-07-30T21:29:23.145Z,5.70
2022-07-30T21:32:01.680Z,5.90
2022-07-30T21:34:40.379Z,7.30
2022-07-30T21:37:15.748Z,6.80
2022-07-30T21:39:46.538Z,6.90
2022-07-30T21:42:16.533Z,6.70
2022-07-30T21:44:46.718Z,7.00
2022-07-30T21:47:18.449Z,8.60
2022-07-30T21:49:51.213Z,6.10
2022-07-30T21:52:22.241Z,8.10
2022-07-30T21:54:50.824Z,7.00
2022-07-30T21:57:26.741Z,8.40
2022-07-30T21:59:59.767Z,8.70
2022-07-30T22:02:29.076Z,9.00
2022-07-30T22:04:59.250Z,6.80
2022-07-30T22:07:28.959Z,11.20
2022-07-30T22:09:58.003Z,7.60
2022-07-30T22:12:29.216Z,9.90
2022-07-30T22:15:06.998Z,9.50
2022-07-30T22:17:58.388Z,7.60
2022-07-30T22:20:30.266Z,6.30
2022-07-30T22:23:01.263Z,8.50
2022-07-30T22:25:41.719Z,8.00
2022-07-30T22:28:16.781Z,7.50
2022-07-30T22:30:45.660Z,8.00
2022-07-30T22:33:15.474Z,6.80
2022-07-30T22:38:34.330Z,9.00
2022-07-30T22:41:02.832Z,8.30
2022-07-30T22:43:38.095Z,8.30
2022-07-30T22:46:30.009Z,8.10
2022-07-30T22:48:59.694Z,8.10
2022-07-30T22:52:01.261Z,9.20
2022-07-30T22:54:18.058Z,8.70
2022-07-30T22:56:47.760Z,6.90
2022-07-30T22:59:16.531Z,9.70
2022-07-30T23:02:00.849Z,7.60
2022-07-30T23:04:30.745Z,7.00
2022-07-30T23:07:02.184Z,7.70
2022-07-30T23:09:51.702Z,6.90
2022-07-30T23:12:24.481Z,6.60
2022-07-30T23:12:32.894Z,8.50
2022-07-30T23:14:55.195Z,7.00
2022-07-30T23:17:23.936Z,6.80
2022-07-30T23:19:52.319Z,7.50
2022-07-30T23:22:21.582Z,6.40
2022-07-30T23:24:51.024Z,7.40
2022-07-30T23:27:19.165Z,7.80
2022-07-30T23:29:53.924Z,9.70
2022-07-30T23:32:21.988Z,6.60
2022-07-30T23:34:50.260Z,7.70
2022-07-30T23:37:18.450Z,6.30
2022-07-30T23:39:46.325Z,6.40
2022-07-30T23:42:14.168Z,7.70
2022-07-30T23:44:42.579Z,6.70
2022-07-30T23:47:10.542Z,6.20
2022-07-30T23:49:38.507Z,6.70
2022-07-30T23:52:06.373Z,7.20
2022-07-30T23:54:34.246Z,7.60
2022-07-30T23:57:02.413Z,7.10
2022-07-30T23:59:30.768Z,7.80
